Terminal Aerodrome Forecast
Issued by NWS

Home | Current Version | Previous Version | Text Only | Print | Product List | Glossary On
Versions: 1 2 3 4 5 6 7 8 9 10 11 12
000
FTUS41 KAKQ 181100
TAFPHF
TAF
KPHF 181120Z 1812/1912 00000KT P6SM SCT050
     FM181500 06008KT P6SM SCT050 BKN150
     FM190000 10004KT P6SM SCT100=

USA.gov is the U.S. government's official web portal to all federal, state and local government web resources and services.